.
WxDataArchive / Data Records for 2009-10-30
2009-10-29 October 2009 2009-10-31

Data Records for Friday, 30 October 2009

Time	Temp	Chill	HIndex	Humid	Dewpt	 Wind 	HiWind	WindDir	Rain 	Barom 
-----	----	-----	------	-----	-----	------	------	-------	-----	----- 
00:00	52.9	52.9	52.9	86	48.8	1	3	90	0.00	29.976 
00:05	53.1	53.1	53.1	86	49.0	2	6	90	0.00	29.976 
00:10	53.1	53.1	53.1	86	49.0	2	6	90	0.00	29.976 
00:15	53.1	53.1	53.1	86	49.0	2	3	90	0.00	29.967 
00:20	52.9	52.9	52.9	86	48.8	1	4	90	0.00	29.967 
00:25	52.9	52.9	52.9	86	48.8	1	5	90	0.00	29.967 
00:30	52.9	52.9	52.9	86	48.8	2	5	90	0.00	29.964 
00:35	52.9	52.9	52.9	87	49.1	1	4	90	0.00	29.964 
00:40	52.9	52.9	52.9	87	49.1	1	4	90	0.00	29.964 
00:45	52.9	52.9	52.9	87	49.1	2	4	68	0.00	29.960 
00:50	52.9	52.9	52.9	87	49.1	2	4	68	0.00	29.960 
00:55	52.9	52.9	52.9	87	49.1	1	4	90	0.00	29.960 
01:00	52.9	52.9	52.9	87	49.1	1	4	90	0.00	29.959 
01:05	52.9	52.9	52.9	87	49.1	2	4	90	0.00	29.959 
01:10	52.9	52.9	52.9	87	49.1	2	6	90	0.00	29.959 
01:15	53.1	53.1	53.1	87	49.3	2	5	68	0.00	29.938 
01:20	53.1	53.1	53.1	88	49.6	1	5	68	0.00	29.938 
01:25	53.1	53.1	53.1	88	49.6	2	6	90	0.00	29.938 
01:30	53.1	53.1	53.1	88	49.6	2	3	112	0.00	29.927 
01:35	53.1	53.1	53.1	88	49.6	2	3	68	0.00	29.927 
01:40	53.2	53.2	53.2	88	49.7	2	6	90	0.00	29.927 
01:45	53.2	53.2	53.2	88	49.7	1	2	90	0.00	29.927 
01:50	53.2	53.2	53.2	88	49.7	1	3	112	0.00	29.927 
01:55	53.3	53.3	53.3	88	49.8	1	5	90	0.00	29.927 
02:00	53.3	53.3	53.3	88	49.8	1	4	68	0.00	29.927 
02:05	53.5	53.5	53.5	88	50.0	2	4	68	0.00	29.927 
02:10	53.5	53.5	53.5	88	50.0	1	3	90	0.00	29.927 
02:15	53.6	53.6	53.6	88	50.1	1	6	90	0.00	29.917 
02:20	53.6	53.6	53.6	88	50.1	1	3	90	0.00	29.917 
02:25	53.8	53.8	53.8	88	50.3	1	4	90	0.00	29.917 
02:30	53.8	53.8	53.8	88	50.3	0	2	90	0.00	29.915 
02:35	53.9	53.9	53.9	88	50.4	1	3	90	0.00	29.915 
02:40	53.9	53.9	53.9	88	50.4	1	3	90	0.00	29.915 
02:45	54.1	54.1	54.1	87	50.3	1	4	90	0.00	29.901 
02:50	54.2	54.2	54.2	87	50.4	1	3	90	0.00	29.901 
02:55	54.4	54.4	54.4	87	50.6	1	4	90	0.00	29.901 
03:00	54.5	54.5	54.5	87	50.7	1	4	90	0.00	29.897 
03:05	54.7	54.7	54.7	86	50.6	1	3	90	0.00	29.897 
03:10	54.8	54.8	54.8	86	50.7	1	4	112	0.00	29.897 
03:15	55.0	55.0	55.0	86	50.9	1	3	112	0.00	29.887 
03:20	55.0	55.0	55.0	86	50.9	1	4	112	0.00	29.887 
03:25	55.1	55.1	55.1	86	51.0	1	4	90	0.00	29.887 
03:30	55.3	55.3	55.3	86	51.2	1	3	90	0.00	29.870 
03:35	55.3	55.3	55.3	86	51.2	0	2	90	0.00	29.870 
03:40	55.3	55.3	55.3	86	51.2	1	3	112	0.00	29.870 
03:45	55.6	55.6	55.6	85	51.2	2	4	112	0.00	29.865 
03:50	55.7	55.7	55.7	84	50.9	1	3	112	0.00	29.865 
03:55	55.9	55.9	55.9	84	51.1	1	5	112	0.00	29.865 
04:00	56.0	56.0	56.0	84	51.2	0	2	112	0.00	29.855 
04:05	56.2	56.2	56.2	84	51.4	0	2	135	0.00	29.855 
04:10	56.3	56.3	56.3	84	51.5	1	3	135	0.00	29.855 
04:15	56.5	56.5	56.5	84	51.7	0	3	90	0.00	29.850 
04:20	56.7	56.7	56.7	83	51.6	0	2	90	0.00	29.850 
04:25	57.0	57.0	57.0	82	51.6	1	4	90	0.00	29.850 
04:30	57.5	57.5	57.5	81	51.7	1	3	112	0.00	29.848 
04:35	57.8	57.8	57.8	79	51.3	2	9	112	0.00	29.848 
04:40	58.1	58.1	58.1	79	51.6	1	3	135	0.00	29.848 
04:45	58.1	58.1	58.1	79	51.6	0	1	135	0.00	29.837 
04:50	58.1	58.1	58.1	79	51.6	0	2	135	0.00	29.837 
04:55	58.0	58.0	58.0	79	51.5	0	2	135	0.00	29.837 
05:00	58.0	58.0	58.0	80	51.9	0	2	135	0.00	29.833 
05:05	58.0	58.0	58.0	80	51.9	0	2	135	0.00	29.833 
05:10	57.8	57.8	57.8	80	51.7	0	2	135	0.00	29.833 
05:15	58.0	58.0	58.0	80	51.9	0	2	135	0.00	29.828 
05:20	58.1	58.1	58.1	80	52.0	0	2	135	0.00	29.828 
05:25	58.3	58.3	58.3	79	51.8	1	3	135	0.00	29.828 
05:30	58.4	58.4	58.4	79	51.9	1	3	112	0.00	29.821 
05:35	58.4	58.4	58.4	80	52.3	0	3	112	0.00	29.821 
05:40	58.4	58.4	58.4	80	52.3	0	2	112	0.00	29.821 
05:45	58.4	58.4	58.4	80	52.3	1	5	112	0.00	29.822 
05:50	58.6	58.6	58.6	80	52.4	1	9	68	0.00	29.822 
05:55	58.6	58.6	58.6	80	52.4	1	5	112	0.00	29.822 
06:00	58.6	58.6	58.6	80	52.4	1	3	135	0.00	29.819 
06:05	58.7	58.7	58.7	80	52.5	1	4	90	0.00	29.819 
06:10	58.7	58.7	58.7	80	52.5	1	4	90	0.00	29.819 
06:15	58.7	58.7	58.7	80	52.5	1	4	112	0.00	29.821 
06:20	58.9	58.9	58.9	80	52.7	1	4	135	0.00	29.821 
06:25	58.9	58.9	58.9	79	52.4	1	5	90	0.00	29.821 
06:30	59.2	59.2	59.2	79	52.7	2	5	112	0.00	29.818 
06:35	59.3	59.3	59.3	78	52.4	1	3	90	0.00	29.818 
06:40	59.5	59.5	59.5	78	52.6	1	3	135	0.00	29.818 
06:45	59.6	59.6	59.6	78	52.7	1	3	135	0.00	29.816 
06:50	59.8	59.8	59.8	78	52.9	1	4	135	0.00	29.816 
06:55	59.9	59.9	59.9	78	53.0	1	5	112	0.00	29.816 
07:00	59.9	59.9	59.9	78	53.0	1	4	90	0.01	29.814 
07:05	59.9	59.9	59.9	79	53.4	1	2	112	0.00	29.814 
07:10	59.8	59.8	59.8	80	53.6	1	2	90	0.00	29.814 
07:15	59.8	59.8	59.8	80	53.6	1	4	112	0.00	29.805 
07:20	59.6	59.6	59.6	80	53.4	1	4	90	0.00	29.805 
07:25	59.6	59.6	59.6	80	53.4	1	2	90	0.00	29.805 
07:30	59.6	59.6	59.6	80	53.4	1	3	112	0.00	29.802 
07:35	59.8	59.8	59.8	80	53.6	1	4	68	0.00	29.802 
07:40	59.8	59.8	59.8	80	53.6	1	3	90	0.00	29.802 
07:45	59.8	59.8	59.8	80	53.6	1	4	135	0.00	29.803 
07:50	59.8	59.8	59.8	81	54.0	1	4	158	0.00	29.803 
07:55	59.8	59.8	59.8	81	54.0	1	4	90	0.00	29.803 
08:00	59.8	59.8	59.8	81	54.0	1	4	90	0.00	29.803 
08:05	59.8	59.8	59.8	81	54.0	1	3	90	0.00	29.803 
08:10	59.8	59.8	59.8	81	54.0	1	4	112	0.00	29.803 
08:15	59.9	59.9	59.9	81	54.1	1	4	45	0.00	29.802 
08:20	59.9	59.9	59.9	81	54.1	1	4	68	0.00	29.802 
08:25	60.1	60.1	60.1	81	54.2	1	3	112	0.00	29.802 
08:30	60.1	60.1	60.1	80	53.9	1	2	90	0.00	29.799 
08:35	60.1	60.1	60.1	81	54.2	1	3	68	0.01	29.799 
08:40	60.1	60.1	60.1	81	54.2	1	3	68	0.00	29.799 
08:45	60.1	60.1	60.1	81	54.2	1	4	112	0.00	29.802 
08:50	60.1	60.1	60.1	81	54.2	1	4	112	0.00	29.802 
08:55	60.1	60.1	60.1	81	54.2	1	4	112	0.00	29.802 
09:00	60.2	60.2	60.2	81	54.3	1	3	90	0.00	29.797 
09:05	60.2	60.2	60.2	81	54.3	1	5	112	0.00	29.797 
09:10	60.4	60.4	60.4	80	54.2	1	3	112	0.00	29.797 
09:15	60.5	60.5	60.5	80	54.3	1	4	112	0.00	29.787 
09:20	60.5	60.5	60.5	80	54.3	1	3	90	0.00	29.787 
09:25	60.5	60.5	60.5	80	54.3	1	4	112	0.00	29.787 
09:30	60.7	60.7	60.7	79	54.1	2	5	90	0.00	29.784 
09:35	60.9	60.9	60.9	80	54.7	1	3	112	0.00	29.784 
09:40	60.9	60.9	60.9	79	54.3	1	3	90	0.00	29.784 
09:45	61.0	61.0	61.0	79	54.4	1	3	68	0.00	29.787 
09:50	61.2	61.2	61.2	79	54.6	1	4	90	0.00	29.787 
09:55	61.5	61.5	61.5	79	54.9	1	3	112	0.00	29.787 
10:00	61.6	61.6	61.6	79	55.0	1	3	112	0.00	29.787 
10:05	62.0	62.0	62.0	79	55.4	1	3	112	0.00	29.787 
10:10	62.3	62.3	62.3	79	55.7	1	3	112	0.00	29.787 
10:15	62.6	62.6	62.6	79	56.0	0	3	112	0.00	29.788 
10:20	62.9	62.9	62.9	79	56.3	1	4	90	0.00	29.788 
10:25	63.1	63.1	63.1	78	56.1	1	4	90	0.00	29.788 
10:30	63.5	63.5	63.5	78	56.5	1	3	90	0.00	29.782 
10:35	63.9	63.9	63.9	78	56.9	1	3	45	0.00	29.782 
10:40	64.0	64.0	64.0	78	57.0	1	3	90	0.00	29.782 
10:45	64.2	64.2	64.2	78	57.2	2	5	90	0.00	29.771 
10:50	64.3	64.3	64.3	78	57.3	1	3	68	0.00	29.771 
10:55	64.3	64.3	64.3	79	57.6	1	4	45	0.00	29.771 
11:00	64.5	64.5	64.5	79	57.8	1	5	68	0.00	29.767 
11:05	64.5	64.5	64.5	79	57.8	2	5	112	0.00	29.767 
11:10	64.7	64.7	64.7	80	58.4	1	2	68	0.00	29.767 
11:15	64.5	64.5	64.5	81	58.5	1	5	270	0.00	29.762 
11:20	64.5	64.5	64.5	81	58.5	1	4	135	0.00	29.762 
11:25	64.5	64.5	64.5	82	58.9	1	5	90	0.00	29.762 
11:30	64.7	64.7	64.7	83	59.4	1	5	292	0.00	29.753 
11:35	64.7	64.7	64.7	84	59.7	1	3	292	0.00	29.753 
11:40	64.7	64.7	64.7	84	59.7	1	3	90	0.00	29.753 
11:45	64.8	64.8	64.8	84	59.8	1	5	68	0.00	29.758 
11:50	65.0	65.0	65.0	84	60.0	1	6	45	0.00	29.758 
11:55	65.2	65.2	65.2	84	60.2	1	4	68	0.00	29.758 
12:00	65.2	65.2	65.2	84	60.2	1	5	292	0.01	29.757 
12:05	65.2	65.2	65.2	85	60.6	1	3	292	0.00	29.757 
12:10	65.3	65.3	65.3	86	61.0	1	4	270	0.00	29.757 
12:15	65.2	65.2	65.2	87	61.2	2	7	248	0.01	29.752 
12:20	65.2	65.2	65.2	88	61.6	1	5	248	0.00	29.752 
12:25	65.2	65.2	65.2	88	61.6	2	10	270	0.00	29.752 
12:30	65.3	65.3	65.3	89	62.0	2	7	248	0.00	29.750 
12:35	65.3	65.3	65.3	88	61.6	2	9	270	0.00	29.750 
12:40	65.3	65.3	65.3	89	62.0	2	7	248	0.01	29.750 
12:45	65.3	65.3	65.3	89	62.0	1	5	292	0.00	29.737 
12:50	65.5	65.5	65.5	89	62.2	1	3	292	0.00	29.737 
12:55	65.3	65.3	65.3	89	62.0	1	5	270	0.00	29.737 
13:00	65.5	65.5	65.5	89	62.2	1	7	248	0.00	29.732 
13:05	65.5	65.5	65.5	89	62.2	1	4	270	0.01	29.732 
13:10	65.6	65.6	65.6	89	62.3	0	3	270	0.00	29.732 
13:15	65.8	65.8	65.8	89	62.5	1	3	292	0.00	29.719 
13:20	66.0	66.0	66.0	88	62.3	1	4	90	0.00	29.719 
13:25	66.3	66.3	66.3	87	62.3	1	4	90	0.00	29.719 
13:30	66.4	66.4	66.4	86	62.1	1	4	90	0.00	29.704 
13:35	66.8	66.8	66.8	85	62.1	1	5	270	0.00	29.704 
13:40	66.9	66.9	66.9	84	61.9	1	4	292	0.00	29.704 
13:45	67.1	67.1	67.1	84	62.1	2	5	248	0.00	29.694 
13:50	67.1	67.1	67.1	84	62.1	1	6	315	0.00	29.694 
13:55	67.1	67.1	67.1	84	62.1	1	6	270	0.00	29.694 
14:00	67.1	67.1	67.1	84	62.1	2	5	248	0.00	29.688 
14:05	66.9	66.9	66.9	85	62.2	2	10	338	0.00	29.688 
14:10	66.8	66.8	66.8	85	62.1	1	9	248	0.01	29.688 
14:15	66.6	66.6	66.6	86	62.3	1	4	270	0.00	29.676 
14:20	66.4	66.4	66.4	86	62.1	2	6	270	0.00	29.676 
14:25	66.4	66.4	66.4	86	62.1	2	6	270	0.00	29.676 
14:30	66.3	66.3	66.3	86	62.0	1	6	248	0.00	29.673 
14:35	66.3	66.3	66.3	87	62.3	1	4	248	0.00	29.673 
14:40	66.3	66.3	66.3	87	62.3	1	6	270	0.00	29.673 
14:45	66.4	66.4	66.4	87	62.4	1	5	68	0.00	29.670 
14:50	66.4	66.4	66.4	87	62.4	1	6	292	0.00	29.670 
14:55	66.4	66.4	66.4	86	62.1	1	4	68	0.00	29.670 
15:00	66.4	66.4	66.4	86	62.1	1	6	45	0.00	29.661 
15:05	66.4	66.4	66.4	86	62.1	1	5	270	0.01	29.661 
15:10	66.3	66.3	66.3	87	62.3	2	6	90	0.01	29.661 
15:15	66.1	66.1	66.1	87	62.1	1	4	0	0.00	29.655 
15:20	66.1	66.1	66.1	88	62.4	1	5	292	0.00	29.655 
15:25	66.0	66.0	66.0	88	62.3	1	6	270	0.00	29.655 
15:30	66.0	66.0	66.0	88	62.3	1	3	90	0.00	29.645 
15:35	65.8	65.8	65.8	88	62.1	1	5	292	0.01	29.645 
15:40	65.8	65.8	65.8	89	62.5	1	4	68	0.00	29.645 
15:45	65.8	65.8	65.8	88	62.1	2	9	0	0.00	29.634 
15:50	66.0	66.0	66.0	88	62.3	1	7	270	0.01	29.634 
15:55	66.0	66.0	66.0	91	63.3	1	5	315	0.00	29.634 
16:00	66.1	66.1	66.1	88	62.4	1	6	292	0.00	29.630 
16:05	66.1	66.1	66.1	88	62.4	2	10	90	0.00	29.630 
16:10	66.3	66.3	66.3	87	62.3	1	6	68	0.00	29.630 
16:15	66.4	66.4	66.4	87	62.4	1	5	270	0.00	29.618 
16:20	66.8	66.8	66.8	86	62.5	2	8	68	0.00	29.618 
16:25	67.1	67.1	67.1	86	62.8	1	5	68	0.00	29.618 
16:30	67.3	67.3	67.3	85	62.6	3	5	90	0.00	29.615 
16:35	67.6	67.6	67.6	85	62.9	1	5	292	0.00	29.615 
16:40	67.8	67.8	67.8	85	63.1	2	6	270	0.00	29.615 
16:45	67.8	67.8	67.8	85	63.1	2	9	270	0.00	29.604 
16:50	68.1	68.1	68.1	84	63.1	3	7	90	0.00	29.604 
16:55	68.4	68.4	68.4	82	62.7	2	10	90	0.00	29.604 
17:00	68.9	68.9	68.9	81	62.8	3	11	68	0.00	29.592 
17:05	69.1	69.1	69.1	81	63.0	3	9	90	0.01	29.592 
17:10	69.1	69.1	69.1	82	63.4	2	6	112	0.00	29.592 
17:15	68.9	68.9	68.9	82	63.2	3	8	248	0.00	29.585 
17:20	68.9	68.9	68.9	82	63.2	2	6	45	0.00	29.585 
17:25	68.9	68.9	68.9	82	63.2	2	5	270	0.00	29.585 
17:30	69.1	69.1	69.1	81	63.0	2	7	270	0.00	29.573 
17:35	69.3	69.3	69.3	81	63.2	1	6	0	0.00	29.573 
17:40	69.4	69.4	69.4	80	63.0	2	5	68	0.00	29.573 
17:45	69.4	69.4	69.4	80	63.0	2	11	68	0.00	29.572 
17:50	69.8	69.8	69.8	79	63.0	2	11	270	0.00	29.572 
17:55	69.9	69.9	69.9	78	62.7	3	7	270	0.00	29.572 
18:00	70.1	70.1	70.1	78	62.9	2	6	68	0.00	29.571 
18:05	70.3	70.3	70.3	78	63.1	2	5	292	0.00	29.571 
18:10	70.3	70.3	70.3	77	62.7	2	9	270	0.00	29.571 
18:15	70.3	70.3	70.3	77	62.7	3	9	270	0.00	29.566 
18:20	70.3	70.3	70.3	78	63.1	2	5	248	0.00	29.566 
18:25	69.8	69.8	69.8	80	63.3	1	5	0	0.00	29.566 
18:30	69.4	69.4	69.4	81	63.3	2	7	248	0.00	29.571 
18:35	69.1	69.1	69.1	82	63.4	2	7	270	0.00	29.571 
18:40	68.9	68.9	68.9	82	63.2	1	5	270	0.00	29.571 
18:45	68.9	68.9	68.9	82	63.2	3	10	90	0.01	29.573 
18:50	68.9	68.9	68.9	82	63.2	3	10	270	0.00	29.573 
18:55	68.9	68.9	68.9	82	63.2	1	5	292	0.00	29.573 
19:00	68.9	68.9	68.9	82	63.2	2	7	248	0.00	29.572 
19:05	68.8	68.8	68.8	82	63.1	2	6	292	0.00	29.572 
19:10	68.8	68.8	68.8	82	63.1	2	7	90	0.00	29.572 
19:15	68.9	68.9	68.9	81	62.8	2	10	90	0.00	29.558 
19:20	68.9	68.9	68.9	81	62.8	2	6	90	0.00	29.558 
19:25	68.9	68.9	68.9	81	62.8	2	11	68	0.00	29.558 
19:30	68.9	68.9	68.9	81	62.8	2	9	270	0.00	29.558 
19:35	68.9	68.9	68.9	81	62.8	3	8	90	0.00	29.558 
19:40	68.9	68.9	68.9	82	63.2	3	12	90	0.00	29.558 
19:45	68.9	68.9	68.9	82	63.2	3	10	90	0.00	29.555 
19:50	68.8	68.8	68.8	83	63.4	4	11	90	0.00	29.555 
19:55	68.6	68.6	68.6	83	63.2	2	7	90	0.00	29.555 
20:00	68.4	68.4	68.4	84	63.4	2	7	45	0.00	29.555 
20:05	68.3	68.3	68.3	85	63.6	3	6	90	0.00	29.555 
20:10	68.1	68.1	68.1	85	63.4	2	5	90	0.00	29.555 
20:15	67.9	67.9	67.9	86	63.5	3	10	270	0.00	29.554 
20:20	67.6	67.6	67.6	87	63.6	2	6	68	0.00	29.554 
20:25	67.3	67.3	67.3	88	63.6	2	7	248	0.00	29.554 
20:30	67.1	67.1	67.1	89	63.7	2	6	315	0.01	29.560 
20:35	66.8	66.8	66.8	90	63.8	2	5	270	0.01	29.560 
20:40	66.6	66.6	66.6	91	63.9	2	9	270	0.00	29.560 
20:45	66.4	66.4	66.4	91	63.7	2	7	248	0.02	29.570 
20:50	66.3	66.3	66.3	92	63.9	1	5	270	0.00	29.570 
20:55	66.1	66.1	66.1	92	63.7	2	7	248	0.02	29.570 
21:00	66.0	66.0	66.0	92	63.6	3	9	68	0.01	29.555 
21:05	66.0	66.0	66.0	93	63.9	3	8	270	0.01	29.555 
21:10	65.8	65.8	65.8	93	63.7	4	11	90	0.00	29.555 
21:15	65.8	65.8	65.8	93	63.7	3	10	292	0.00	29.544 
21:20	65.6	65.6	65.6	93	63.5	4	12	270	0.00	29.544 
21:25	65.6	65.6	65.6	93	63.5	2	6	248	0.00	29.544 
21:30	65.6	65.6	65.6	94	63.8	2	7	270	0.00	29.523 
21:35	65.6	65.6	65.6	94	63.8	3	10	315	0.00	29.523 
21:40	65.6	65.6	65.6	94	63.8	3	6	248	0.01	29.523 
21:45	65.6	65.6	65.6	94	63.8	2	5	292	0.00	29.524 
21:50	65.6	65.6	65.6	94	63.8	3	10	270	0.00	29.524 
21:55	65.6	65.6	65.6	94	63.8	3	10	248	0.00	29.524 
22:00	65.6	65.6	65.6	93	63.5	3	10	270	0.00	29.530 
22:05	65.5	65.5	65.5	93	63.4	3	9	270	0.00	29.530 
22:10	65.3	65.3	65.3	93	63.2	3	9	248	0.00	29.530 
22:15	65.2	65.2	65.2	93	63.1	3	7	248	0.00	29.532 
22:20	64.8	64.8	64.8	92	62.4	2	9	270	0.00	29.532 
22:25	64.0	64.0	64.0	92	61.6	5	13	248	0.01	29.532 
22:30	63.4	63.4	63.4	91	60.7	7	14	248	0.00	29.547 
22:35	62.4	62.4	62.4	91	59.7	7	16	270	0.00	29.547 
22:40	61.6	61.6	61.6	91	58.9	7	18	270	0.00	29.547 
22:45	61.3	61.3	61.3	92	59.0	3	9	248	0.00	29.535 
22:50	61.0	61.0	61.0	92	58.7	5	14	248	0.00	29.535 
22:55	60.7	60.7	60.7	92	58.4	5	12	270	0.00	29.535 
23:00	60.5	60.5	60.5	92	58.2	5	19	248	0.00	29.555 
23:05	60.1	60.1	60.1	92	57.8	6	17	248	0.01	29.555 
23:10	58.6	58.6	58.6	89	55.4	8	17	270	0.00	29.555 
23:15	58.0	58.0	58.0	88	54.5	6	13	270	0.00	29.587 
23:20	57.3	57.3	57.3	86	53.1	5	14	270	0.00	29.587 
23:25	57.0	57.0	57.0	85	52.5	5	12	270	0.00	29.587 
23:30	56.9	56.9	56.9	84	52.1	4	11	270	0.00	29.573 
23:35	56.9	56.9	56.9	83	51.8	3	10	248	0.00	29.573 
23:40	56.7	56.7	56.7	81	50.9	5	13	270	0.00	29.573 
23:45	56.6	56.6	56.6	81	50.8	5	10	270	0.01	29.589 
23:50	56.3	56.3	56.3	80	50.2	5	12	270	0.00	29.589 
23:55	56.0	56.0	56.0	78	49.2	6	17	270	0.00	29.589 

CoCoRaHS
IN-AL-39
A2 Web Hosting
Creative Commons License
GoDaddy
search engine by freefind advanced

loaded 2018-11-15 13:37:43 • last modified 2010-11-18 10:43:29
Privacy PolicyDisclaimer
• wx.awcolley.com is powered by PmWiki v.2002016 •
• all content (unless otherwise noted) © 2018 A W Colley